createdAt,value
2019-02-26T00:00:30.087Z,40.45
2019-02-26T00:03:02.158Z,39.35
2019-02-26T00:05:28.606Z,39.70
2019-02-26T00:07:57.704Z,40.78
2019-02-26T00:10:26.561Z,39.35
2019-02-26T00:12:52.763Z,37.78
2019-02-26T00:15:19.415Z,37.65
2019-02-26T00:17:48.372Z,37.08
2019-02-26T00:20:17.059Z,37.10
2019-02-26T00:22:43.199Z,35.90
2019-02-26T00:25:10.425Z,37.08
2019-02-26T00:27:38.355Z,38.88
2019-02-26T00:30:09.587Z,36.03
2019-02-26T00:32:38.207Z,36.80
2019-02-26T00:35:06.846Z,37.25
2019-02-26T00:37:33.535Z,35.78
2019-02-26T00:40:00.254Z,35.68
2019-02-26T00:42:28.674Z,33.95
2019-02-26T00:44:57.621Z,32.93
2019-02-26T00:47:25.007Z,30.92
2019-02-26T00:49:53.495Z,32.67
2019-02-26T00:52:20.356Z,29.48
2019-02-26T00:54:47.050Z,28.77
2019-02-26T00:57:13.954Z,29.30
2019-02-26T00:59:41.252Z,29.40
2019-02-26T01:02:09.295Z,31.07
2019-02-26T01:04:36.018Z,33.00
2019-02-26T01:07:03.822Z,35.23
2019-02-26T01:09:32.261Z,34.25
2019-02-26T01:12:00.231Z,34.55
2019-02-26T01:14:26.895Z,34.95
2019-02-26T01:16:53.575Z,35.33
2019-02-26T01:19:20.219Z,32.88
2019-02-26T01:21:46.947Z,32.65
2019-02-26T01:24:13.700Z,34.75
2019-02-26T01:26:42.547Z,33.20
2019-02-26T01:29:09.039Z,32.70
2019-02-26T01:31:35.766Z,33.15
2019-02-26T01:34:02.386Z,33.92
2019-02-26T01:36:30.894Z,35.83
2019-02-26T01:38:57.560Z,38.02
2019-02-26T01:41:25.011Z,36.73
2019-02-26T01:43:52.861Z,34.95
2019-02-26T01:46:19.562Z,36.50
2019-02-26T01:48:46.195Z,36.35
2019-02-26T01:51:12.824Z,33.70
2019-02-26T01:53:39.527Z,35.58
2019-02-26T01:56:06.171Z,35.33
2019-02-26T01:58:33.658Z,35.50
2019-02-26T02:01:00.737Z,35.17
2019-02-26T02:03:28.024Z,35.30
2019-02-26T02:05:55.836Z,35.60
2019-02-26T02:08:24.768Z,37.10
2019-02-26T02:10:53.604Z,36.28
2019-02-26T02:13:19.559Z,35.58
2019-02-26T02:15:46.577Z,35.73
2019-02-26T02:18:13.195Z,33.30
2019-02-26T02:20:39.792Z,32.13
2019-02-26T02:23:07.078Z,32.03
2019-02-26T02:25:36.166Z,31.85
2019-02-26T02:28:04.397Z,30.02
2019-02-26T02:30:32.605Z,30.10
2019-02-26T02:33:02.011Z,31.93
2019-02-26T02:35:28.191Z,30.55
2019-02-26T02:37:57.105Z,29.98
2019-02-26T02:40:23.552Z,31.70
2019-02-26T02:42:50.219Z,32.05
2019-02-26T02:45:20.454Z,31.10
2019-02-26T02:47:45.445Z,30.48
2019-02-26T02:50:15.070Z,30.15
2019-02-26T02:52:41.398Z,30.45
2019-02-26T02:55:10.537Z,29.37
2019-02-26T02:57:37.341Z,30.30
2019-02-26T03:00:09.878Z,30.52
2019-02-26T03:02:40.587Z,30.25
2019-02-26T03:05:06.764Z,30.00
2019-02-26T03:07:33.504Z,29.92
2019-02-26T03:10:06.104Z,30.50
2019-02-26T03:12:30.660Z,29.02
2019-02-26T03:14:59.837Z,31.20
2019-02-26T03:17:25.921Z,31.17
2019-02-26T03:19:52.622Z,30.20
2019-02-26T03:22:21.568Z,28.35
2019-02-26T03:24:48.424Z,29.23
2019-02-26T03:27:16.404Z,28.32
2019-02-26T03:29:45.060Z,28.20
2019-02-26T03:32:11.673Z,28.45
2019-02-26T03:34:38.283Z,27.48
2019-02-26T03:37:06.290Z,27.45
2019-02-26T03:39:33.503Z,26.97
2019-02-26T03:42:00.133Z,26.57
2019-02-26T03:44:29.539Z,26.62
2019-02-26T03:46:56.333Z,26.35
2019-02-26T03:49:26.381Z,26.40
2019-02-26T03:51:51.578Z,26.40
2019-02-26T03:54:18.257Z,26.37
2019-02-26T03:56:45.002Z,27.27
2019-02-26T03:59:11.926Z,27.17
2019-02-26T04:01:38.580Z,26.68
2019-02-26T04:04:07.591Z,27.65
2019-02-26T04:06:35.994Z,26.23
2019-02-26T04:09:02.333Z,26.80
2019-02-26T04:11:30.205Z,27.15
2019-02-26T04:13:56.878Z,27.17
2019-02-26T04:16:23.524Z,28.25
2019-02-26T04:18:51.988Z,27.40
2019-02-26T04:21:20.933Z,27.87
2019-02-26T04:23:47.280Z,29.40
2019-02-26T04:26:21.049Z,29.02
2019-02-26T04:28:52.493Z,33.02
2019-02-26T04:31:28.751Z,31.20
2019-02-26T04:34:01.818Z,29.98
2019-02-26T04:36:31.291Z,30.45
2019-02-26T04:39:19.101Z,30.80
2019-02-26T04:42:08.304Z,30.20
2019-02-26T04:44:55.158Z,29.37
2019-02-26T04:47:26.689Z,29.25
2019-02-26T04:49:54.445Z,31.05
2019-02-26T04:52:22.045Z,29.72
2019-02-26T04:54:48.711Z,28.55
2019-02-26T04:57:15.414Z,29.25
2019-02-26T04:59:43.902Z,29.70
2019-02-26T05:02:10.735Z,29.02
2019-02-26T05:04:39.452Z,29.85
2019-02-26T05:07:08.067Z,28.27
2019-02-26T05:09:35.394Z,27.37
2019-02-26T05:12:02.291Z,29.30
2019-02-26T05:14:29.017Z,27.80
2019-02-26T05:16:55.724Z,28.15
2019-02-26T05:19:24.294Z,26.95
2019-02-26T05:21:50.941Z,27.85
2019-02-26T05:24:18.930Z,28.45
2019-02-26T05:26:46.251Z,26.57
2019-02-26T05:29:12.950Z,27.40
2019-02-26T05:31:43.044Z,25.97
2019-02-26T05:34:09.170Z,26.12
2019-02-26T05:36:39.030Z,26.68
2019-02-26T05:39:05.574Z,28.10
2019-02-26T05:41:34.050Z,26.02
2019-02-26T05:44:01.832Z,26.15
2019-02-26T05:46:29.608Z,26.65
2019-02-26T05:48:56.369Z,26.55
2019-02-26T05:51:24.571Z,25.90
2019-02-26T05:53:51.620Z,26.25
2019-02-26T05:56:20.725Z,26.75
2019-02-26T05:58:47.160Z,25.62
2019-02-26T06:01:16.262Z,27.32
2019-02-26T06:03:44.273Z,29.25
2019-02-26T06:06:11.036Z,28.60
2019-02-26T06:08:39.282Z,27.20
2019-02-26T06:11:06.376Z,28.32
2019-02-26T06:13:35.501Z,28.05
2019-02-26T06:16:01.942Z,28.15
2019-02-26T06:18:30.208Z,28.25
2019-02-26T06:20:58.630Z,28.85
2019-02-26T06:23:28.048Z,31.50
2019-02-26T06:25:55.994Z,30.12
2019-02-26T06:28:22.699Z,30.45
2019-02-26T06:30:49.399Z,33.10
2019-02-26T06:33:16.471Z,30.90
2019-02-26T06:35:43.263Z,32.45
2019-02-26T06:38:11.671Z,33.13
2019-02-26T06:40:39.343Z,31.57
2019-02-26T06:43:07.059Z,30.35
2019-02-26T06:45:35.472Z,31.97
2019-02-26T06:48:02.278Z,30.12
2019-02-26T06:50:28.959Z,32.98
2019-02-26T06:52:55.623Z,37.35
2019-02-26T06:55:22.315Z,34.00
2019-02-26T06:57:50.862Z,30.68
2019-02-26T07:00:19.733Z,31.45
2019-02-26T07:02:46.397Z,31.30
2019-02-26T07:05:13.705Z,31.12
2019-02-26T07:07:40.396Z,31.65
2019-02-26T07:10:16.002Z,31.65
2019-02-26T07:12:42.646Z,30.12
2019-02-26T07:15:16.494Z,28.90
2019-02-26T07:17:46.085Z,33.95
2019-02-26T07:20:11.678Z,27.82
2019-02-26T07:22:39.840Z,30.50
2019-02-26T07:25:10.445Z,30.20
2019-02-26T07:27:38.426Z,30.48
2019-02-26T07:30:10.284Z,30.45
2019-02-26T07:32:38.346Z,30.97
2019-02-26T07:35:08.708Z,31.87
2019-02-26T07:37:38.094Z,30.57
2019-02-26T07:40:11.099Z,31.45
2019-02-26T07:45:14.661Z,30.62
2019-02-26T07:47:37.379Z,32.25
2019-02-26T07:50:11.611Z,35.63
2019-02-26T07:52:38.234Z,55.40
2019-02-26T07:55:09.188Z,47.80
2019-02-26T07:57:34.843Z,43.33
2019-02-26T08:00:06.235Z,42.75
2019-02-26T08:02:34.924Z,41.30
2019-02-26T08:05:01.675Z,44.15
2019-02-26T08:07:28.534Z,44.30
2019-02-26T08:09:56.905Z,44.30
2019-02-26T08:12:23.568Z,45.78
2019-02-26T08:14:50.278Z,53.45
2019-02-26T08:17:16.965Z,66.72
2019-02-26T08:19:46.622Z,48.35
2019-02-26T08:22:12.264Z,49.08
2019-02-26T08:24:38.962Z,45.52
2019-02-26T08:27:06.544Z,42.50
2019-02-26T08:29:36.132Z,42.00
2019-02-26T08:32:02.768Z,38.35
2019-02-26T08:34:29.437Z,37.30
2019-02-26T08:36:56.124Z,40.80
2019-02-26T08:39:22.811Z,39.48
2019-02-26T08:42:01.385Z,41.00
2019-02-26T08:44:28.250Z,39.45
2019-02-26T08:46:54.956Z,39.10
2019-02-26T08:49:22.539Z,37.80
2019-02-26T08:51:49.431Z,38.80
2019-02-26T08:54:20.803Z,39.53
2019-02-26T08:56:44.611Z,38.17
2019-02-26T08:59:12.396Z,40.67
2019-02-26T09:01:39.099Z,38.35
2019-02-26T09:04:05.808Z,36.25
2019-02-26T09:06:32.528Z,38.20
2019-02-26T09:09:00.161Z,37.20
2019-02-26T09:11:31.815Z,37.67
2019-02-26T09:13:59.466Z,37.48
2019-02-26T09:16:28.312Z,36.40
2019-02-26T09:18:55.372Z,32.75
2019-02-26T09:21:22.880Z,31.50
2019-02-26T09:23:53.871Z,30.37
2019-02-26T09:26:18.183Z,28.98
2019-02-26T09:28:47.530Z,28.50
2019-02-26T09:31:14.227Z,29.40
2019-02-26T09:33:43.580Z,28.50
2019-02-26T09:36:12.632Z,30.85
2019-02-26T09:38:39.281Z,26.37
2019-02-26T09:41:06.706Z,29.37
2019-02-26T09:43:33.418Z,27.42
2019-02-26T09:46:00.011Z,25.77
2019-02-26T09:48:26.751Z,27.62
2019-02-26T09:50:53.478Z,28.27
2019-02-26T09:53:20.077Z,26.45
2019-02-26T09:55:46.803Z,27.05
2019-02-26T09:58:15.741Z,28.15
2019-02-26T10:00:43.013Z,29.05
2019-02-26T10:03:12.712Z,27.13
2019-02-26T10:05:39.321Z,27.10
2019-02-26T10:08:05.933Z,26.23
2019-02-26T10:10:33.773Z,25.90
2019-02-26T10:13:02.878Z,27.00
2019-02-26T10:15:29.821Z,27.15
2019-02-26T10:17:58.797Z,26.42
2019-02-26T10:20:28.574Z,26.70
2019-02-26T10:22:57.226Z,25.20
2019-02-26T10:25:23.346Z,25.95
2019-02-26T10:27:51.553Z,26.00
2019-02-26T10:30:19.336Z,25.30
2019-02-26T10:32:46.804Z,26.15
2019-02-26T10:35:22.566Z,26.10
2019-02-26T10:37:52.565Z,28.07
2019-02-26T10:40:19.563Z,27.67
2019-02-26T10:42:46.848Z,27.42
2019-02-26T10:45:18.314Z,22.13
2019-02-26T10:47:45.055Z,20.40
2019-02-26T10:50:16.300Z,21.48
2019-02-26T10:52:42.731Z,21.45
2019-02-26T10:55:12.804Z,21.85
2019-02-26T10:57:38.476Z,21.85
2019-02-26T11:00:22.648Z,21.90
2019-02-26T11:02:51.079Z,21.70
2019-02-26T11:05:20.802Z,22.82
2019-02-26T11:07:47.132Z,22.00
2019-02-26T11:10:14.600Z,20.68
2019-02-26T11:12:42.553Z,20.52
2019-02-26T11:15:12.132Z,21.80
2019-02-26T11:17:38.892Z,20.43
2019-02-26T11:20:08.489Z,21.77
2019-02-26T11:22:35.194Z,21.80
2019-02-26T11:25:02.079Z,21.02
2019-02-26T11:27:28.776Z,20.48
2019-02-26T11:29:57.800Z,20.27
2019-02-26T11:32:24.148Z,19.57
2019-02-26T11:34:52.705Z,20.90
2019-02-26T11:37:20.318Z,18.77
2019-02-26T11:39:48.251Z,19.15
2019-02-26T11:42:16.437Z,18.92
2019-02-26T11:44:43.499Z,19.80
2019-02-26T11:47:11.132Z,17.50
2019-02-26T11:49:39.446Z,19.23
2019-02-26T11:52:08.602Z,18.15
2019-02-26T11:54:37.306Z,19.32
2019-02-26T11:57:05.186Z,19.15
2019-02-26T11:59:33.793Z,20.17
2019-02-26T12:02:03.919Z,19.07
2019-02-26T12:04:30.135Z,18.48
2019-02-26T12:06:58.526Z,19.37
2019-02-26T12:09:25.585Z,21.60
2019-02-26T12:11:52.214Z,18.50
2019-02-26T12:14:21.559Z,18.73
2019-02-26T12:16:47.421Z,18.15
2019-02-26T12:19:14.045Z,18.95
2019-02-26T12:21:40.740Z,19.85
2019-02-26T12:24:09.123Z,18.98
2019-02-26T12:26:35.953Z,17.77
2019-02-26T12:29:04.427Z,17.35
2019-02-26T12:31:34.103Z,16.57
2019-02-26T12:34:00.951Z,15.40
2019-02-26T12:36:29.835Z,16.00
2019-02-26T12:38:57.439Z,18.23
2019-02-26T12:41:24.841Z,17.10
2019-02-26T12:43:51.532Z,16.35
2019-02-26T12:46:19.738Z,17.07
2019-02-26T12:48:47.777Z,18.05
2019-02-26T12:51:15.424Z,17.35
2019-02-26T12:53:49.138Z,16.37
2019-02-26T12:56:13.551Z,17.12
2019-02-26T12:58:41.004Z,17.20
2019-02-26T13:01:08.758Z,17.20
2019-02-26T13:03:38.854Z,16.07
2019-02-26T13:06:05.871Z,16.90
2019-02-26T13:08:32.597Z,17.00
2019-02-26T13:10:59.248Z,15.70
2019-02-26T13:13:26.985Z,15.30
2019-02-26T13:15:53.597Z,13.95
2019-02-26T13:18:20.274Z,14.18
2019-02-26T13:20:52.138Z,14.35
2019-02-26T13:23:20.705Z,9.08
2019-02-26T13:25:46.272Z,12.30
2019-02-26T13:28:12.987Z,12.70
2019-02-26T13:30:39.758Z,13.15
2019-02-26T13:33:11.098Z,13.93
2019-02-26T13:35:34.995Z,12.00
2019-02-26T13:38:02.556Z,10.45
2019-02-26T13:40:29.246Z,11.12
2019-02-26T13:45:25.724Z,11.75
2019-02-26T13:47:52.427Z,10.32
2019-02-26T13:50:24.664Z,9.10
2019-02-26T13:52:51.264Z,7.55
2019-02-26T13:55:17.998Z,8.35
2019-02-26T13:57:44.696Z,7.03
2019-02-26T14:00:12.917Z,7.53
2019-02-26T14:02:39.622Z,7.30
2019-02-26T14:05:08.727Z,7.30
2019-02-26T14:07:35.337Z,7.78
2019-02-26T14:10:03.412Z,6.40
2019-02-26T14:12:30.088Z,7.65
2019-02-26T14:14:56.718Z,7.25
2019-02-26T14:17:23.439Z,7.25
2019-02-26T14:19:50.108Z,7.22
2019-02-26T14:22:17.024Z,8.75
2019-02-26T14:24:43.648Z,8.30
2019-02-26T14:27:10.372Z,7.22
2019-02-26T14:29:36.968Z,7.83
2019-02-26T14:32:03.627Z,9.35
2019-02-26T14:34:30.322Z,9.30
2019-02-26T14:36:57.061Z,8.13
2019-02-26T14:39:23.710Z,9.40
2019-02-26T14:41:50.565Z,9.78
2019-02-26T14:44:17.174Z,9.68
2019-02-26T14:46:44.906Z,10.90
2019-02-26T14:49:11.616Z,8.75
2019-02-26T14:51:38.243Z,7.95
2019-02-26T14:54:06.477Z,7.62
2019-02-26T14:56:33.475Z,8.23
2019-02-26T14:59:00.152Z,8.33
2019-02-26T15:01:26.812Z,7.60
2019-02-26T15:03:53.818Z,7.25
2019-02-26T15:06:20.531Z,7.60
2019-02-26T15:08:47.229Z,11.28
2019-02-26T15:11:13.932Z,8.00
2019-02-26T15:13:40.631Z,8.03
2019-02-26T15:16:07.320Z,7.60
2019-02-26T15:18:35.753Z,8.48
2019-02-26T15:21:02.660Z,7.87
2019-02-26T15:23:29.355Z,7.70
2019-02-26T15:25:56.063Z,9.68
2019-02-26T15:28:22.677Z,8.85
2019-02-26T15:30:49.350Z,9.98
2019-02-26T15:33:16.038Z,10.03
2019-02-26T15:35:42.750Z,9.33
2019-02-26T15:38:09.489Z,8.78
2019-02-26T15:40:36.242Z,9.40
2019-02-26T15:43:02.966Z,8.80
2019-02-26T15:45:30.766Z,8.65
2019-02-26T15:47:57.388Z,7.65
2019-02-26T15:50:24.017Z,8.70
2019-02-26T15:52:53.043Z,8.20
2019-02-26T15:55:22.840Z,7.72
2019-02-26T15:57:49.902Z,8.33
2019-02-26T16:00:18.279Z,7.95
2019-02-26T16:02:45.671Z,8.03
2019-02-26T16:05:12.349Z,8.10
2019-02-26T16:07:39.036Z,8.58
2019-02-26T16:10:08.189Z,8.75
2019-02-26T16:12:35.015Z,11.25
2019-02-26T16:15:01.719Z,9.98
2019-02-26T16:17:28.399Z,11.03
2019-02-26T16:19:55.014Z,10.80
2019-02-26T16:22:21.677Z,12.82
2019-02-26T16:24:48.363Z,14.40
2019-02-26T16:27:15.208Z,12.37
2019-02-26T16:29:41.908Z,16.48
2019-02-26T16:32:08.505Z,18.02
2019-02-26T16:34:35.465Z,13.78
2019-02-26T16:37:03.330Z,14.38
2019-02-26T16:39:31.101Z,12.00
2019-02-26T16:41:58.112Z,13.40
2019-02-26T16:44:25.423Z,14.23
2019-02-26T16:46:52.353Z,14.85
2019-02-26T16:49:19.071Z,21.60
2019-02-26T16:51:45.739Z,21.60
2019-02-26T16:54:12.382Z,17.65
2019-02-26T16:56:39.403Z,16.73
2019-02-26T16:59:07.854Z,17.95
2019-02-26T17:01:34.969Z,19.23
2019-02-26T17:04:01.671Z,16.82
2019-02-26T17:06:28.399Z,17.35
2019-02-26T17:08:54.989Z,58.75
2019-02-26T17:11:21.673Z,33.67
2019-02-26T17:13:48.355Z,31.60
2019-02-26T17:16:15.058Z,54.15
2019-02-26T17:18:42.785Z,49.98
2019-02-26T17:21:10.190Z,45.35
2019-02-26T17:23:36.810Z,38.55
2019-02-26T17:26:04.652Z,34.60
2019-02-26T17:28:31.360Z,34.05
2019-02-26T17:30:58.336Z,22.42
2019-02-26T17:33:24.955Z,21.55
2019-02-26T17:35:52.947Z,10.38
2019-02-26T17:38:19.758Z,12.70
2019-02-26T17:40:46.370Z,9.68
2019-02-26T17:43:13.063Z,7.58
2019-02-26T17:45:39.676Z,8.93
2019-02-26T17:48:06.263Z,17.92
2019-02-26T17:50:38.050Z,13.75
2019-02-26T17:53:04.857Z,12.65
2019-02-26T17:55:31.472Z,8.08
2019-02-26T17:57:58.173Z,10.25
2019-02-26T18:00:26.493Z,26.82
2019-02-26T18:02:53.207Z,9.00
2019-02-26T18:05:19.936Z,35.95
2019-02-26T18:07:47.644Z,12.43
2019-02-26T18:10:22.168Z,7.47
2019-02-26T18:12:48.857Z,3.05
2019-02-26T18:15:17.471Z,2.37
2019-02-26T18:17:44.174Z,1.95
2019-02-26T18:20:16.586Z,1.50
2019-02-26T18:22:43.195Z,1.72
2019-02-26T18:25:11.847Z,1.50
2019-02-26T18:27:38.527Z,1.20
2019-02-26T18:30:15.124Z,2.00
2019-02-26T18:32:49.987Z,1.40
2019-02-26T18:35:10.431Z,1.75
2019-02-26T18:37:46.045Z,25.08
2019-02-26T18:40:11.141Z,36.40
2019-02-26T18:42:38.708Z,31.87
2019-02-26T18:45:09.527Z,32.30
2019-02-26T18:47:36.395Z,30.48
2019-02-26T18:50:04.285Z,32.05
2019-02-26T18:52:30.964Z,34.88
2019-02-26T18:54:57.583Z,32.88
2019-02-26T18:57:24.890Z,34.35
2019-02-26T18:59:53.702Z,35.65
2019-02-26T19:02:20.338Z,34.27
2019-02-26T19:04:48.759Z,35.78
2019-02-26T19:07:16.617Z,36.50
2019-02-26T19:09:45.105Z,37.35
2019-02-26T19:12:11.834Z,37.67
2019-02-26T19:14:42.019Z,39.27
2019-02-26T19:17:07.071Z,41.88
2019-02-26T19:19:33.736Z,41.63
2019-02-26T19:22:00.429Z,42.53
2019-02-26T19:24:27.124Z,43.55
2019-02-26T19:26:54.826Z,46.95
2019-02-26T19:29:21.413Z,49.03
2019-02-26T19:31:48.096Z,52.43
2019-02-26T19:34:14.774Z,48.95
2019-02-26T19:36:45.676Z,51.28
2019-02-26T19:39:12.124Z,46.02
2019-02-26T19:41:38.894Z,47.95
2019-02-26T19:44:05.504Z,46.80
2019-02-26T19:46:32.143Z,46.42
2019-02-26T19:48:58.824Z,46.10
2019-02-26T19:51:25.659Z,47.13
2019-02-26T19:53:52.395Z,47.88
2019-02-26T19:56:23.235Z,48.70
2019-02-26T19:58:47.707Z,55.83
2019-02-26T20:01:14.378Z,56.95
2019-02-26T20:03:42.123Z,46.37
2019-02-26T20:06:08.744Z,41.08
2019-02-26T20:08:35.479Z,37.75
2019-02-26T20:11:02.148Z,40.48
2019-02-26T20:13:28.798Z,39.78
2019-02-26T20:15:55.456Z,40.70
2019-02-26T20:18:25.816Z,40.08
2019-02-26T20:20:50.656Z,40.23
2019-02-26T20:23:17.343Z,40.17
2019-02-26T20:25:44.010Z,43.05
2019-02-26T20:28:10.673Z,41.48
2019-02-26T20:30:37.335Z,39.88
2019-02-26T20:33:04.866Z,39.00
2019-02-26T20:35:31.707Z,36.95
2019-02-26T20:37:58.828Z,36.50
2019-02-26T20:40:26.026Z,35.95
2019-02-26T20:42:52.651Z,34.10
2019-02-26T20:45:22.448Z,37.50
2019-02-26T20:47:49.068Z,36.38
2019-02-26T20:50:19.973Z,33.33
2019-02-26T20:52:44.258Z,38.75
2019-02-26T20:55:16.698Z,45.78
2019-02-26T21:00:13.259Z,53.92
2019-02-26T21:05:09.471Z,43.10
2019-02-26T21:07:36.259Z,36.10
2019-02-26T21:10:05.427Z,34.48
2019-02-26T21:12:32.099Z,35.52
2019-02-26T21:14:58.722Z,31.93
2019-02-26T21:17:25.824Z,31.40
2019-02-26T21:19:53.040Z,28.85
2019-02-26T21:22:21.816Z,30.50
2019-02-26T21:24:48.271Z,30.45
2019-02-26T21:27:14.947Z,28.47
2019-02-26T21:29:41.688Z,29.90
2019-02-26T21:32:08.382Z,30.60
2019-02-26T21:34:35.018Z,30.88
2019-02-26T21:37:01.762Z,30.27
2019-02-26T21:39:28.351Z,28.95
2019-02-26T21:41:56.385Z,35.88
2019-02-26T21:44:23.379Z,37.33
2019-02-26T21:46:50.020Z,32.73
2019-02-26T21:49:16.667Z,39.05
2019-02-26T21:51:43.463Z,35.75
2019-02-26T21:54:10.054Z,33.98
2019-02-26T21:56:36.752Z,32.03
2019-02-26T21:59:03.453Z,33.45
2019-02-26T22:01:30.147Z,33.25
2019-02-26T22:03:58.578Z,32.98
2019-02-26T22:06:25.508Z,31.60
2019-02-26T22:08:52.132Z,29.25
2019-02-26T22:11:19.166Z,29.05
2019-02-26T22:13:45.986Z,28.67
2019-02-26T22:16:14.940Z,28.80
2019-02-26T22:18:41.472Z,32.30
2019-02-26T22:21:08.182Z,32.93
2019-02-26T22:23:34.914Z,38.40
2019-02-26T22:26:01.680Z,38.60
2019-02-26T22:28:28.370Z,36.70
2019-02-26T22:30:55.903Z,31.17
2019-02-26T22:33:23.266Z,32.33
2019-02-26T22:35:49.967Z,32.48
2019-02-26T22:38:16.559Z,32.98
2019-02-26T22:40:43.244Z,31.57
2019-02-26T22:43:13.623Z,30.23
2019-02-26T22:45:38.471Z,36.28
2019-02-26T22:48:05.965Z,37.08
2019-02-26T22:50:32.687Z,35.25
2019-02-26T22:53:03.751Z,27.02
2019-02-26T22:55:28.137Z,25.82
2019-02-26T22:57:54.834Z,26.12
2019-02-26T23:00:50.604Z,25.75
2019-02-26T23:03:19.311Z,25.35
2019-02-26T23:05:46.010Z,26.12
2019-02-26T23:08:12.708Z,26.45
2019-02-26T23:10:39.497Z,27.20
2019-02-26T23:13:06.246Z,26.00
2019-02-26T23:15:34.035Z,26.02
2019-02-26T23:18:00.765Z,24.87
2019-02-26T23:20:27.469Z,23.27
2019-02-26T23:22:54.319Z,24.05
2019-02-26T23:25:21.135Z,23.55
2019-02-26T23:27:48.698Z,24.32
2019-02-26T23:30:16.407Z,23.47
2019-02-26T23:32:43.088Z,22.52
2019-02-26T23:35:12.017Z,22.85
2019-02-26T23:37:38.744Z,23.15
2019-02-26T23:40:08.172Z,22.48
2019-02-26T23:42:38.593Z,26.12
2019-02-26T23:45:06.882Z,23.85
2019-02-26T23:47:35.133Z,26.85
2019-02-26T23:50:02.029Z,22.25
2019-02-26T23:52:28.721Z,22.13
2019-02-26T23:54:55.357Z,21.97
2019-02-26T23:57:22.780Z,27.13
2019-02-26T23:59:50.607Z,25.00
